createdAt,value
2019-01-18T00:01:19.933Z,8.75
2019-01-18T00:03:47.912Z,13.90
2019-01-18T00:06:16.058Z,13.98
2019-01-18T00:08:44.256Z,16.17
2019-01-18T00:11:12.408Z,18.48
2019-01-18T00:13:42.551Z,21.10
2019-01-18T00:16:10.504Z,24.12
2019-01-18T00:18:38.523Z,24.57
2019-01-18T00:21:06.664Z,28.10
2019-01-18T00:23:34.617Z,25.10
2019-01-18T00:26:04.379Z,20.10
2019-01-18T00:28:32.518Z,25.57
2019-01-18T00:31:00.465Z,27.05
2019-01-18T00:33:30.591Z,17.12
2019-01-18T00:35:58.248Z,20.48
2019-01-18T00:38:26.214Z,17.82
2019-01-18T00:40:54.412Z,15.25
2019-01-18T00:43:22.363Z,14.73
2019-01-18T00:45:50.358Z,8.98
2019-01-18T00:48:20.463Z,8.70
2019-01-18T00:50:48.164Z,6.40
2019-01-18T00:53:16.205Z,8.20
2019-01-18T00:55:45.425Z,12.00
2019-01-18T00:58:15.241Z,13.43
2019-01-18T01:00:42.984Z,4.87
2019-01-18T01:03:10.949Z,5.72
2019-01-18T01:05:38.923Z,3.33
2019-01-18T01:08:08.783Z,4.17
2019-01-18T01:10:36.574Z,3.25
2019-01-18T01:13:05.539Z,9.95
2019-01-18T01:15:35.328Z,3.25
2019-01-18T01:18:03.579Z,11.40
2019-01-18T01:20:31.549Z,4.47
2019-01-18T01:22:59.620Z,7.78
2019-01-18T01:25:27.799Z,8.08
2019-01-18T01:27:55.763Z,5.37
2019-01-18T01:30:23.936Z,7.10
2019-01-18T01:32:52.009Z,5.15
2019-01-18T01:35:21.354Z,4.22
2019-01-18T01:37:49.383Z,6.87
2019-01-18T01:40:17.763Z,4.58
2019-01-18T01:42:47.422Z,4.25
2019-01-18T01:45:15.546Z,6.60
2019-01-18T01:47:43.619Z,3.80
2019-01-18T01:50:11.891Z,7.10
2019-01-18T01:52:39.963Z,17.35
2019-01-18T01:55:08.038Z,24.87
2019-01-18T01:57:36.108Z,25.23
2019-01-18T02:00:04.082Z,7.67
2019-01-18T02:02:32.148Z,7.08
2019-01-18T02:05:00.427Z,5.08
2019-01-18T02:07:28.498Z,4.17
2019-01-18T02:09:56.568Z,6.83
2019-01-18T02:12:24.626Z,10.10
2019-01-18T02:14:52.712Z,4.67
2019-01-18T02:17:22.404Z,4.95
2019-01-18T02:19:50.497Z,7.60
2019-01-18T02:22:18.441Z,8.75
2019-01-18T02:24:46.920Z,5.20
2019-01-18T02:27:15.120Z,7.03
2019-01-18T02:29:43.190Z,4.58
2019-01-18T02:32:11.268Z,6.50
2019-01-18T02:34:39.313Z,3.95
2019-01-18T02:37:07.420Z,4.12
2019-01-18T02:39:35.378Z,3.62
2019-01-18T02:42:05.073Z,3.75
2019-01-18T02:44:34.780Z,3.42
2019-01-18T02:47:02.767Z,3.40
2019-01-18T02:49:30.736Z,3.42
2019-01-18T02:51:59.839Z,3.17
2019-01-18T02:54:28.786Z,3.30
2019-01-18T02:56:56.795Z,2.80
2019-01-18T02:59:24.772Z,2.70
2019-01-18T03:01:52.734Z,3.85
2019-01-18T03:04:27.379Z,3.10
2019-01-18T03:06:55.434Z,2.58
2019-01-18T03:09:23.506Z,2.90
2019-01-18T03:11:51.552Z,2.60
2019-01-18T03:14:19.852Z,2.70
2019-01-18T03:16:47.911Z,3.52
2019-01-18T03:19:16.200Z,3.00
2019-01-18T03:21:45.398Z,3.02
2019-01-18T03:24:13.456Z,4.22
2019-01-18T03:26:41.441Z,4.30
2019-01-18T03:29:09.512Z,3.50
2019-01-18T03:31:37.457Z,4.30
2019-01-18T03:34:05.454Z,3.42
2019-01-18T03:36:33.703Z,3.10
2019-01-18T03:39:01.680Z,3.62
2019-01-18T03:41:29.767Z,3.35
2019-01-18T03:43:57.942Z,4.25
2019-01-18T03:46:25.881Z,3.58
2019-01-18T03:48:53.981Z,3.30
2019-01-18T03:51:21.951Z,5.00
2019-01-18T03:53:49.920Z,2.45
2019-01-18T03:56:19.593Z,3.20
2019-01-18T03:58:49.406Z,3.60
2019-01-18T04:01:17.415Z,3.33
2019-01-18T04:03:47.153Z,5.00
2019-01-18T04:06:16.200Z,3.87
2019-01-18T04:08:45.145Z,3.20
2019-01-18T04:11:13.182Z,3.30
2019-01-18T04:13:41.155Z,3.50
2019-01-18T04:16:09.121Z,3.52
2019-01-18T04:18:37.194Z,3.40
2019-01-18T04:21:05.164Z,6.00
2019-01-18T04:23:33.236Z,3.90
2019-01-18T04:26:01.204Z,3.10
2019-01-18T04:28:29.276Z,3.20
2019-01-18T04:30:57.243Z,3.47
2019-01-18T04:33:25.525Z,2.85
2019-01-18T04:35:53.465Z,3.02
2019-01-18T04:38:21.462Z,3.20
2019-01-18T04:40:49.532Z,3.50
2019-01-18T04:43:17.479Z,2.92
2019-01-18T04:45:45.581Z,4.70
2019-01-18T04:48:13.514Z,2.90
2019-01-18T04:50:41.485Z,3.20
2019-01-18T04:53:09.486Z,4.15
2019-01-18T04:55:37.436Z,3.52
2019-01-18T04:58:05.392Z,3.17
2019-01-18T05:00:40.181Z,3.30
2019-01-18T05:03:02.971Z,3.42
2019-01-18T05:05:30.958Z,4.60
2019-01-18T05:08:00.694Z,4.35
2019-01-18T05:10:28.750Z,5.12
2019-01-18T05:12:56.690Z,6.37
2019-01-18T05:15:24.690Z,4.10
2019-01-18T05:17:52.658Z,5.65
2019-01-18T05:20:20.732Z,4.08
2019-01-18T05:22:48.706Z,8.95
2019-01-18T05:25:17.686Z,4.62
2019-01-18T05:27:45.640Z,5.10
2019-01-18T05:30:13.602Z,4.72
2019-01-18T05:32:41.705Z,4.12
2019-01-18T05:35:09.775Z,4.35
2019-01-18T05:37:37.734Z,5.28
2019-01-18T05:40:05.712Z,6.42
2019-01-18T05:42:33.888Z,6.10
2019-01-18T05:45:01.965Z,3.92
2019-01-18T05:47:29.901Z,5.65
2019-01-18T05:49:57.899Z,5.33
2019-01-18T05:52:26.353Z,6.22
2019-01-18T05:54:56.242Z,5.62
2019-01-18T05:57:25.836Z,5.70
2019-01-18T05:59:55.535Z,7.00
2019-01-18T06:02:23.479Z,7.03
2019-01-18T06:04:52.056Z,9.78
2019-01-18T06:07:20.139Z,11.10
2019-01-18T06:09:48.107Z,8.08
2019-01-18T06:12:16.149Z,12.88
2019-01-18T06:14:44.126Z,8.90
2019-01-18T06:17:13.091Z,8.98
2019-01-18T06:19:41.114Z,6.72
2019-01-18T06:22:09.287Z,7.65
2019-01-18T06:24:37.258Z,13.32
2019-01-18T06:27:05.306Z,10.30
2019-01-18T06:29:33.403Z,7.30
2019-01-18T06:32:01.342Z,6.80
2019-01-18T06:34:29.412Z,11.15
2019-01-18T06:36:58.433Z,7.90
2019-01-18T06:39:26.373Z,15.72
2019-01-18T06:41:55.377Z,9.05
2019-01-18T06:44:23.334Z,9.95
2019-01-18T06:46:51.765Z,7.53
2019-01-18T06:49:20.325Z,9.65
2019-01-18T06:51:48.398Z,11.40
2019-01-18T06:54:16.471Z,8.95
2019-01-18T06:56:44.541Z,9.98
2019-01-18T06:59:12.613Z,9.45
2019-01-18T07:01:40.563Z,11.70
2019-01-18T07:04:08.751Z,12.20
2019-01-18T07:06:36.835Z,11.73
2019-01-18T07:09:05.675Z,11.48
2019-01-18T07:11:34.764Z,16.62
2019-01-18T07:14:02.785Z,11.70
2019-01-18T07:16:31.921Z,14.13
2019-01-18T07:19:00.815Z,14.23
2019-01-18T07:21:28.851Z,41.98
2019-01-18T07:23:56.800Z,32.38
2019-01-18T07:26:24.757Z,35.88
2019-01-18T07:28:52.888Z,18.15
2019-01-18T07:31:20.824Z,18.07
2019-01-18T07:33:49.336Z,13.20
2019-01-18T07:36:17.256Z,15.32
2019-01-18T07:38:45.222Z,19.35
2019-01-18T07:41:13.418Z,16.10
2019-01-18T07:43:41.490Z,12.30
2019-01-18T07:46:09.461Z,12.43
2019-01-18T07:48:37.429Z,18.02
2019-01-18T07:51:05.370Z,12.93
2019-01-18T07:53:33.784Z,12.60
2019-01-18T07:56:01.937Z,13.45
2019-01-18T07:58:30.331Z,15.43
2019-01-18T08:00:58.375Z,15.08
2019-01-18T08:03:27.352Z,18.62
2019-01-18T08:05:55.673Z,14.40
2019-01-18T08:08:23.745Z,24.00
2019-01-18T08:10:51.790Z,16.30
2019-01-18T08:13:21.513Z,28.75
2019-01-18T08:15:49.374Z,17.95
2019-01-18T08:18:17.979Z,19.48
2019-01-18T08:20:46.356Z,23.92
2019-01-18T08:23:14.327Z,16.75
2019-01-18T08:25:42.274Z,16.40
2019-01-18T08:28:10.265Z,16.52
2019-01-18T08:30:38.214Z,18.35
2019-01-18T08:33:06.307Z,18.40
2019-01-18T08:35:34.568Z,13.98
2019-01-18T08:38:03.517Z,12.00
2019-01-18T08:40:31.691Z,23.00
2019-01-18T08:42:59.829Z,54.98
2019-01-18T08:45:27.810Z,52.35
2019-01-18T08:47:55.873Z,73.45
2019-01-18T08:50:24.041Z,71.20
2019-01-18T08:52:52.965Z,73.80
2019-01-18T08:55:21.002Z,68.25
2019-01-18T08:57:48.958Z,45.80
2019-01-18T09:00:16.920Z,31.42
2019-01-18T09:02:45.013Z,29.95
2019-01-18T09:05:12.982Z,34.03
2019-01-18T09:07:40.931Z,33.58
2019-01-18T09:10:09.329Z,22.25
2019-01-18T09:12:37.300Z,22.05
2019-01-18T09:15:05.269Z,28.23
2019-01-18T09:17:34.779Z,20.10
2019-01-18T09:20:02.821Z,15.10
2019-01-18T09:22:30.920Z,19.33
2019-01-18T09:24:58.886Z,14.30
2019-01-18T09:27:26.960Z,20.97
2019-01-18T09:29:55.035Z,21.82
2019-01-18T09:32:24.928Z,18.65
2019-01-18T09:34:52.893Z,22.77
2019-01-18T09:37:20.884Z,31.62
2019-01-18T09:39:48.859Z,24.52
2019-01-18T09:42:16.799Z,31.00
2019-01-18T09:44:44.999Z,26.77
2019-01-18T09:47:13.385Z,26.80
2019-01-18T09:49:42.805Z,26.62
2019-01-18T09:52:11.057Z,18.70
2019-01-18T09:54:39.027Z,20.35
2019-01-18T09:57:07.003Z,19.67
2019-01-18T09:59:35.479Z,17.73
2019-01-18T10:02:03.754Z,18.00
2019-01-18T10:04:31.722Z,16.55
2019-01-18T10:06:59.897Z,20.45
2019-01-18T10:09:27.857Z,20.48
2019-01-18T10:11:57.749Z,17.30
2019-01-18T10:14:25.547Z,19.87
2019-01-18T10:16:55.513Z,19.23
2019-01-18T10:19:23.430Z,19.60
2019-01-18T10:21:51.400Z,17.92
2019-01-18T10:24:19.368Z,19.52
2019-01-18T10:26:47.731Z,20.92
2019-01-18T10:29:17.290Z,18.62
2019-01-18T10:31:45.328Z,19.92
2019-01-18T10:34:13.588Z,17.23
2019-01-18T10:36:41.673Z,19.17
2019-01-18T10:39:10.594Z,17.62
2019-01-18T10:41:38.964Z,17.27
2019-01-18T10:44:07.015Z,19.20
2019-01-18T10:46:35.000Z,18.12
2019-01-18T10:49:03.572Z,20.75
2019-01-18T10:51:31.642Z,21.50
2019-01-18T10:53:59.593Z,21.15
2019-01-18T10:56:27.578Z,18.45
2019-01-18T10:58:55.625Z,21.05
2019-01-18T11:01:23.713Z,15.40
2019-01-18T11:03:53.013Z,19.35
2019-01-18T11:06:21.283Z,15.70
2019-01-18T11:08:49.456Z,17.17
2019-01-18T11:11:17.547Z,17.05
2019-01-18T11:13:45.595Z,17.17
2019-01-18T11:16:13.588Z,18.25
2019-01-18T11:18:41.528Z,17.92
2019-01-18T11:21:09.507Z,22.75
2019-01-18T11:23:37.503Z,20.85
2019-01-18T11:26:05.464Z,14.63
2019-01-18T11:28:33.417Z,16.55
2019-01-18T11:31:01.379Z,18.50
2019-01-18T11:33:29.348Z,19.17
2019-01-18T11:35:57.439Z,15.95
2019-01-18T11:38:25.421Z,19.05
2019-01-18T11:40:55.588Z,20.20
2019-01-18T11:43:23.280Z,27.82
2019-01-18T11:45:51.244Z,25.02
2019-01-18T11:48:19.341Z,23.60
2019-01-18T11:50:49.446Z,20.00
2019-01-18T11:53:17.711Z,19.07
2019-01-18T11:55:45.809Z,37.42
2019-01-18T11:58:14.166Z,15.38
2019-01-18T12:00:42.557Z,21.50
2019-01-18T12:03:10.518Z,18.30
2019-01-18T12:05:38.506Z,20.37
2019-01-18T12:08:06.792Z,18.30
2019-01-18T12:10:34.751Z,17.55
2019-01-18T12:13:02.728Z,16.52
2019-01-18T12:15:30.792Z,27.98
2019-01-18T12:17:59.019Z,27.95
2019-01-18T12:20:27.218Z,27.48
2019-01-18T12:22:55.229Z,29.15
2019-01-18T12:25:25.042Z,29.18
2019-01-18T12:27:52.894Z,29.45
2019-01-18T12:30:20.843Z,19.77
2019-01-18T12:32:48.934Z,22.75
2019-01-18T12:35:16.882Z,20.17
2019-01-18T12:37:44.873Z,22.82
2019-01-18T12:40:12.843Z,23.40
2019-01-18T12:42:41.120Z,17.85
2019-01-18T12:45:09.094Z,22.32
2019-01-18T12:47:37.347Z,10.93
2019-01-18T12:50:05.314Z,17.52
2019-01-18T12:52:34.998Z,16.02
2019-01-18T12:55:03.197Z,18.20
2019-01-18T12:57:31.293Z,14.65
2019-01-18T12:59:59.260Z,11.65
2019-01-18T13:02:27.333Z,19.17
2019-01-18T13:04:55.303Z,14.07
2019-01-18T13:07:23.449Z,12.20
2019-01-18T13:09:53.415Z,13.28
2019-01-18T13:12:21.425Z,9.10
2019-01-18T13:14:49.645Z,8.58
2019-01-18T13:17:17.711Z,9.98
2019-01-18T13:19:45.765Z,10.48
2019-01-18T13:22:13.732Z,11.80
2019-01-18T13:24:41.714Z,13.30
2019-01-18T13:27:09.871Z,18.50
2019-01-18T13:29:37.945Z,8.83
2019-01-18T13:32:05.919Z,15.67
2019-01-18T13:34:33.889Z,16.43
2019-01-18T13:37:02.077Z,14.03
2019-01-18T13:39:30.429Z,15.60
2019-01-18T13:41:59.876Z,15.63
2019-01-18T13:44:28.348Z,22.23
2019-01-18T13:46:56.774Z,16.15
2019-01-18T13:49:24.692Z,18.30
2019-01-18T13:51:52.637Z,16.20
2019-01-18T13:54:20.734Z,11.85
2019-01-18T13:56:48.673Z,13.30
2019-01-18T13:59:16.759Z,16.10
2019-01-18T14:01:44.678Z,18.42
2019-01-18T14:04:12.712Z,12.55
2019-01-18T14:06:40.683Z,22.22
2019-01-18T14:09:08.955Z,13.25
2019-01-18T14:11:36.929Z,14.45
2019-01-18T14:14:04.880Z,15.88
2019-01-18T14:16:34.073Z,20.55
2019-01-18T14:19:02.065Z,13.80
2019-01-18T14:21:30.032Z,12.82
2019-01-18T14:23:58.517Z,15.93
2019-01-18T14:26:26.485Z,26.93
2019-01-18T14:28:54.456Z,29.55
2019-01-18T14:31:22.628Z,32.50
2019-01-18T14:33:50.569Z,22.42
2019-01-18T14:36:18.649Z,21.20
2019-01-18T14:38:46.619Z,24.15
2019-01-18T14:41:15.787Z,19.32
2019-01-18T14:43:44.115Z,16.12
2019-01-18T14:46:12.086Z,18.05
2019-01-18T14:48:40.052Z,17.12
2019-01-18T14:51:08.257Z,12.55
2019-01-18T14:53:36.488Z,11.45
2019-01-18T14:56:04.474Z,8.75
2019-01-18T14:58:32.416Z,11.88
2019-01-18T15:01:00.515Z,14.93
2019-01-18T15:03:29.465Z,11.50
2019-01-18T15:05:59.484Z,14.53
2019-01-18T15:08:27.083Z,9.63
2019-01-18T15:10:57.044Z,6.87
2019-01-18T15:13:24.739Z,11.83
2019-01-18T15:15:52.939Z,6.05
2019-01-18T15:18:20.914Z,6.37
2019-01-18T15:20:49.056Z,5.45
2019-01-18T15:23:17.049Z,5.60
2019-01-18T15:25:44.991Z,7.20
2019-01-18T15:28:13.071Z,9.45
2019-01-18T15:30:41.062Z,6.60
2019-01-18T15:33:09.643Z,6.20
2019-01-18T15:35:37.920Z,7.55
2019-01-18T15:38:05.889Z,6.40
2019-01-18T15:40:34.968Z,7.28
2019-01-18T15:43:03.887Z,5.72
2019-01-18T15:45:31.925Z,7.87
2019-01-18T15:47:59.925Z,9.40
2019-01-18T15:50:27.896Z,7.25
2019-01-18T15:52:55.858Z,5.03
2019-01-18T15:55:24.006Z,7.50
2019-01-18T15:57:52.008Z,7.25
2019-01-18T16:00:19.949Z,7.20
2019-01-18T16:02:48.046Z,8.00
2019-01-18T16:05:17.838Z,9.58
2019-01-18T16:07:46.035Z,5.45
2019-01-18T16:10:14.203Z,5.78
2019-01-18T16:12:43.519Z,7.03
2019-01-18T16:15:11.551Z,6.75
2019-01-18T16:17:39.545Z,7.40
2019-01-18T16:20:07.604Z,6.80
2019-01-18T16:22:36.583Z,9.13
2019-01-18T16:25:07.240Z,8.35
2019-01-18T16:27:35.314Z,8.10
2019-01-18T16:30:03.271Z,5.45
2019-01-18T16:32:31.355Z,7.83
2019-01-18T16:34:59.528Z,6.85
2019-01-18T16:37:27.473Z,7.20
2019-01-18T16:39:55.669Z,6.97
2019-01-18T16:42:23.615Z,8.20
2019-01-18T16:44:51.715Z,10.65
2019-01-18T16:47:21.260Z,6.12
2019-01-18T16:49:49.602Z,6.35
2019-01-18T16:52:17.646Z,9.53
2019-01-18T16:54:47.261Z,4.47
2019-01-18T16:57:15.353Z,6.30
2019-01-18T16:59:43.425Z,6.65
2019-01-18T17:02:11.395Z,8.28
2019-01-18T17:04:39.360Z,6.58
2019-01-18T17:07:07.336Z,5.20
2019-01-18T17:09:35.402Z,5.92
2019-01-18T17:12:03.478Z,6.00
2019-01-18T17:14:31.444Z,5.33
2019-01-18T17:16:59.519Z,5.10
2019-01-18T17:19:27.590Z,7.22
2019-01-18T17:21:55.558Z,5.72
2019-01-18T17:24:23.832Z,6.05
2019-01-18T17:26:52.011Z,6.03
2019-01-18T17:29:19.983Z,5.47
2019-01-18T17:31:48.150Z,7.53
2019-01-18T17:34:16.426Z,6.08
2019-01-18T17:36:44.610Z,8.35
2019-01-18T17:39:12.575Z,7.58
2019-01-18T17:41:42.534Z,11.25
2019-01-18T17:44:10.429Z,5.20
2019-01-18T17:46:38.430Z,6.92
2019-01-18T17:49:06.399Z,6.08
2019-01-18T17:51:34.466Z,5.40
2019-01-18T17:54:04.294Z,7.47
2019-01-18T17:56:32.051Z,5.55
2019-01-18T17:59:00.014Z,6.58
2019-01-18T18:01:27.967Z,6.40
2019-01-18T18:03:56.273Z,8.30
2019-01-18T18:06:24.328Z,6.30
2019-01-18T18:08:52.301Z,6.53
2019-01-18T18:11:20.780Z,7.67
2019-01-18T18:13:49.166Z,11.38
2019-01-18T18:16:17.131Z,7.70
2019-01-18T18:18:46.689Z,8.40
2019-01-18T18:21:16.691Z,8.13
2019-01-18T18:23:48.204Z,4.92
2019-01-18T18:26:14.333Z,8.40
2019-01-18T18:28:43.371Z,8.70
2019-01-18T18:31:11.397Z,6.00
2019-01-18T18:33:39.469Z,9.33
2019-01-18T18:36:07.543Z,5.87
2019-01-18T18:38:35.614Z,5.75
2019-01-18T18:41:04.940Z,7.20
2019-01-18T18:43:33.165Z,5.35
2019-01-18T18:46:01.162Z,9.78
2019-01-18T18:48:30.095Z,6.85
2019-01-18T18:50:58.402Z,6.33
2019-01-18T18:53:26.509Z,6.22
2019-01-18T18:55:55.820Z,5.03
2019-01-18T18:58:24.387Z,5.78
2019-01-18T19:00:52.458Z,5.40
2019-01-18T19:03:21.745Z,4.80
2019-01-18T19:05:50.012Z,5.00
2019-01-18T19:08:18.186Z,6.03
2019-01-18T19:10:46.287Z,8.35
2019-01-18T19:13:14.323Z,5.75
2019-01-18T19:15:42.330Z,9.90
2019-01-18T19:18:11.381Z,10.48
2019-01-18T19:20:39.492Z,7.30
2019-01-18T19:23:07.459Z,6.08
2019-01-18T19:25:35.402Z,7.40
2019-01-18T19:28:03.393Z,6.95
2019-01-18T19:30:31.367Z,7.47
2019-01-18T19:32:59.427Z,12.13
2019-01-18T19:35:27.431Z,6.90
2019-01-18T19:37:57.206Z,5.60
2019-01-18T19:40:25.395Z,7.47
2019-01-18T19:42:53.569Z,9.30
2019-01-18T19:45:21.538Z,9.35
2019-01-18T19:47:49.610Z,5.03
2019-01-18T19:50:17.770Z,5.65
2019-01-18T19:52:45.860Z,9.85
2019-01-18T19:55:13.930Z,9.40
2019-01-18T19:57:41.981Z,10.08
2019-01-18T20:00:17.730Z,8.25
2019-01-18T20:02:45.721Z,6.95
2019-01-18T20:05:15.289Z,8.03
2019-01-18T20:07:43.408Z,6.60
2019-01-18T20:10:14.648Z,9.10
2019-01-18T20:12:42.722Z,6.70
2019-01-18T20:15:10.692Z,7.33
2019-01-18T20:17:38.626Z,5.37
2019-01-18T20:20:06.626Z,9.68
2019-01-18T20:22:35.723Z,8.50
2019-01-18T20:25:03.976Z,5.50
2019-01-18T20:27:32.045Z,8.33
2019-01-18T20:30:00.048Z,5.70
2019-01-18T20:32:28.217Z,8.50
2019-01-18T20:34:56.185Z,6.33
2019-01-18T20:37:25.890Z,6.40
2019-01-18T20:39:54.045Z,7.17
2019-01-18T20:42:22.014Z,12.65
2019-01-18T20:44:50.090Z,10.45
2019-01-18T20:47:18.082Z,7.08
2019-01-18T20:49:46.151Z,6.50
2019-01-18T20:52:14.098Z,5.55
2019-01-18T20:54:42.297Z,11.12
2019-01-18T20:57:10.266Z,7.53
2019-01-18T20:59:38.546Z,5.92
2019-01-18T21:02:07.975Z,8.83
2019-01-18T21:04:35.996Z,9.00
2019-01-18T21:07:04.093Z,6.85
2019-01-18T21:09:36.296Z,8.43
2019-01-18T21:12:05.333Z,7.22
2019-01-18T21:14:35.225Z,7.55
2019-01-18T21:17:03.204Z,7.08
2019-01-18T21:19:31.410Z,9.08
2019-01-18T21:21:59.463Z,11.95
2019-01-18T21:24:30.348Z,6.55
2019-01-18T21:26:58.997Z,11.00
2019-01-18T21:29:26.978Z,7.22
2019-01-18T21:31:55.072Z,11.12
2019-01-18T21:34:23.016Z,11.63
2019-01-18T21:36:50.967Z,8.85
2019-01-18T21:39:18.957Z,8.33
2019-01-18T21:41:48.362Z,10.35
2019-01-18T21:44:16.816Z,8.60
2019-01-18T21:46:44.910Z,8.03
2019-01-18T21:49:12.806Z,7.30
2019-01-18T21:51:41.467Z,10.75
2019-01-18T21:54:09.513Z,10.10
2019-01-18T21:56:37.513Z,11.05
2019-01-18T21:59:05.569Z,8.93
2019-01-18T22:01:33.751Z,8.55
2019-01-18T22:04:05.557Z,8.23
2019-01-18T22:06:35.559Z,9.25
2019-01-18T22:09:05.110Z,7.58
2019-01-18T22:11:33.186Z,8.15
2019-01-18T22:14:02.100Z,10.55
2019-01-18T22:16:30.249Z,9.45
2019-01-18T22:18:58.344Z,9.88
2019-01-18T22:21:26.419Z,9.50
2019-01-18T22:23:55.464Z,6.05
2019-01-18T22:26:31.855Z,8.13
2019-01-18T22:29:00.051Z,7.85
2019-01-18T22:31:28.224Z,11.25
2019-01-18T22:33:56.301Z,8.63
2019-01-18T22:36:24.243Z,9.75
2019-01-18T22:38:54.094Z,10.80
2019-01-18T22:41:24.182Z,8.75
2019-01-18T22:43:55.138Z,7.50
2019-01-18T22:46:23.515Z,7.15
2019-01-18T22:48:51.486Z,8.38
2019-01-18T22:51:19.428Z,11.85
2019-01-18T22:53:47.399Z,9.15
2019-01-18T22:56:17.254Z,12.03
2019-01-18T22:58:45.698Z,10.10
2019-01-18T23:01:17.377Z,10.82
2019-01-18T23:03:45.698Z,13.35
2019-01-18T23:06:13.798Z,9.68
2019-01-18T23:08:41.874Z,11.53
2019-01-18T23:11:11.448Z,11.43
2019-01-18T23:13:41.214Z,10.25
2019-01-18T23:16:09.708Z,10.80
2019-01-18T23:18:41.369Z,8.88
2019-01-18T23:21:09.499Z,11.20
2019-01-18T23:23:37.569Z,7.95
2019-01-18T23:26:07.765Z,7.30
2019-01-18T23:28:35.791Z,7.80
2019-01-18T23:31:05.346Z,5.55
2019-01-18T23:33:33.445Z,7.25
2019-01-18T23:36:01.439Z,6.40
2019-01-18T23:38:29.617Z,9.03
2019-01-18T23:40:58.638Z,6.00
2019-01-18T23:43:27.870Z,5.78
2019-01-18T23:45:55.875Z,8.30
2019-01-18T23:48:23.847Z,11.65
2019-01-18T23:50:52.121Z,6.72
2019-01-18T23:53:20.077Z,8.35
2019-01-18T23:55:50.196Z,6.28
2019-01-18T23:58:18.273Z,7.90
